Time;durP1;ratioP1;P1;durP2;ratioP2;P2;SDS_P1;SDS_P2;PMS_P1;PMS_P2;Temp;Humidity;BMP_temperature;BMP_pressure;BME280_temperature;BME280_humidity;BME280_pressure;Samples;Min_cycle;Max_cycle;Signal;HPM_P1;HPM_P2
2021/12/03 00:02:04;;;;;;;4.10;1.65;;;0.90;99.90;;;;;;5093742;28;20123;-43
2021/12/03 00:04:30;;;;;;;5.13;1.55;;;0.90;99.90;;;;;;5069809;28;20067;-43
2021/12/03 00:06:58;;;;;;;3.45;1.70;;;0.90;99.90;;;;;;5089453;28;20489;-43
2021/12/03 00:09:24;;;;;;;5.35;1.60;;;0.80;99.90;;;;;;5099612;28;20504;-44
2021/12/03 00:11:50;;;;;;;6.90;1.45;;;0.90;99.90;;;;;;5080273;28;20636;-43
2021/12/03 00:14:16;;;;;;;7.65;1.60;;;0.90;99.90;;;;;;5087637;28;20033;-43
2021/12/03 00:16:42;;;;;;;6.15;1.52;;;0.90;99.90;;;;;;5072447;28;20618;-43
2021/12/03 00:19:08;;;;;;;5.90;1.65;;;0.90;99.90;;;;;;5064665;28;20178;-43
2021/12/03 00:21:34;;;;;;;5.65;1.88;;;0.90;99.90;;;;;;5084964;28;20074;-43
2021/12/03 00:24:00;;;;;;;8.98;2.25;;;0.90;99.90;;;;;;5049302;28;20056;-43
2021/12/03 00:26:26;;;;;;;11.48;2.15;;;0.90;99.90;;;;;;5088022;28;20116;-44
2021/12/03 00:28:52;;;;;;;4.05;1.70;;;0.90;99.90;;;;;;5057837;28;20127;-44
2021/12/03 00:31:19;;;;;;;7.90;2.00;;;0.90;99.90;;;;;;5071275;28;20047;-43
2021/12/03 00:33:45;;;;;;;5.43;1.75;;;0.90;99.90;;;;;;5070995;28;20530;-43
2021/12/03 00:36:11;;;;;;;2.67;1.33;;;0.90;99.90;;;;;;5089738;28;20119;-43
2021/12/03 00:38:47;;;;;;;5.88;1.27;;;0.90;99.90;;;;;;5064474;28;20115;-44
2021/12/03 00:41:18;;;;;;;4.93;1.50;;;1.00;99.90;;;;;;5067464;28;20036;-43
2021/12/03 00:43:46;;;;;;;4.20;1.30;;;1.00;99.90;;;;;;5080393;28;20306;-43
2021/12/03 00:46:15;;;;;;;5.75;1.33;;;1.00;99.90;;;;;;5064845;28;20043;-43
2021/12/03 00:48:44;;;;;;;8.50;1.33;;;1.00;99.90;;;;;;5073285;28;20080;-43
2021/12/03 00:51:12;;;;;;;4.72;1.70;;;1.10;99.90;;;;;;5071376;28;20455;-44
2021/12/03 00:53:39;;;;;;;5.22;1.42;;;1.00;99.90;;;;;;5075294;28;20078;-43
2021/12/03 00:56:06;;;;;;;8.15;1.33;;;1.10;99.90;;;;;;5054382;28;20071;-45
2021/12/03 00:58:33;;;;;;;5.53;1.50;;;1.10;99.90;;;;;;5065266;28;20073;-44
2021/12/03 01:01:00;;;;;;;9.13;1.42;;;1.10;99.90;;;;;;5081555;28;20044;-45
2021/12/03 01:03:26;;;;;;;2.75;1.30;;;1.10;99.90;;;;;;5057648;28;20507;-44
2021/12/03 01:05:52;;;;;;;4.68;1.30;;;1.10;99.90;;;;;;5067823;28;20619;-44
2021/12/03 01:08:18;;;;;;;7.90;1.98;;;1.10;99.90;;;;;;5074045;28;20039;-44
2021/12/03 01:10:44;;;;;;;2.85;1.13;;;1.10;99.90;;;;;;5094186;28;20130;-44
2021/12/03 01:13:10;;;;;;;4.80;1.20;;;1.10;99.90;;;;;;5076836;28;20090;-44
2021/12/03 01:15:38;;;;;;;4.20;1.55;;;1.10;99.90;;;;;;5075077;28;20058;-44
2021/12/03 01:18:05;;;;;;;3.25;1.65;;;1.10;99.90;;;;;;5059519;28;20052;-44
2021/12/03 01:20:32;;;;;;;3.85;1.77;;;1.10;99.90;;;;;;5100094;28;20040;-44
2021/12/03 01:22:59;;;;;;;4.85;1.58;;;1.10;99.90;;;;;;5079094;28;20048;-44
2021/12/03 01:25:28;;;;;;;4.00;1.52;;;1.10;99.90;;;;;;5057746;28;20108;-44
2021/12/03 01:27:55;;;;;;;7.40;1.77;;;1.00;99.90;;;;;;5072097;28;20402;-45
2021/12/03 01:30:23;;;;;;;4.80;1.30;;;1.10;99.90;;;;;;5037975;28;20051;-45
2021/12/03 01:32:50;;;;;;;6.05;1.80;;;1.00;99.90;;;;;;5074448;28;20028;-44
2021/12/03 01:35:17;;;;;;;2.67;1.27;;;1.00;99.90;;;;;;5074451;28;20102;-45
2021/12/03 01:37:44;;;;;;;4.25;1.30;;;1.00;99.90;;;;;;5073982;28;20469;-45
2021/12/03 01:40:14;;;;;;;5.22;1.77;;;1.00;99.90;;;;;;5074378;28;20051;-44
2021/12/03 01:42:41;;;;;;;4.60;1.27;;;1.00;99.90;;;;;;5074130;28;20040;-45
2021/12/03 01:45:09;;;;;;;3.72;1.30;;;1.00;99.90;;;;;;5073970;28;20123;-45
2021/12/03 01:47:35;;;;;;;3.33;1.40;;;1.00;99.90;;;;;;5073780;28;20075;-45
2021/12/03 01:50:03;;;;;;;3.17;1.33;;;1.00;99.90;;;;;;5076559;28;20147;-42
2021/12/03 01:52:29;;;;;;;6.72;1.23;;;1.00;99.90;;;;;;5093156;28;20090;-42
2021/12/03 01:54:59;;;;;;;4.20;1.35;;;1.00;99.90;;;;;;5097741;28;20592;-42
2021/12/03 01:57:26;;;;;;;5.93;1.60;;;1.00;99.90;;;;;;5093700;28;20124;-42
2021/12/03 01:59:52;;;;;;;5.03;1.60;;;1.00;99.90;;;;;;5096724;28;20039;-43
2021/12/03 02:02:17;;;;;;;4.18;1.42;;;1.00;99.90;;;;;;5072876;28;20044;-43
2021/12/03 02:04:43;;;;;;;4.80;1.60;;;1.00;99.90;;;;;;5073843;28;20047;-42
2021/12/03 02:07:09;;;;;;;2.85;1.35;;;1.00;99.90;;;;;;5052756;28;20048;-43
2021/12/03 02:09:35;;;;;;;3.90;1.23;;;1.10;99.90;;;;;;5090825;28;20378;-44
2021/12/03 02:12:01;;;;;;;19.20;1.73;;;1.00;99.90;;;;;;5080887;28;20044;-42
2021/12/03 02:14:27;;;;;;;5.47;1.23;;;1.10;99.90;;;;;;5074596;28;20044;-42
2021/12/03 02:16:53;;;;;;;4.53;1.42;;;1.10;99.90;;;;;;5070938;28;20043;-42
2021/12/03 02:19:20;;;;;;;4.18;1.00;;;1.20;99.90;;;;;;5061474;28;20146;-43
2021/12/03 02:21:46;;;;;;;5.40;1.50;;;1.10;99.90;;;;;;5090232;28;20378;-42
2021/12/03 02:24:14;;;;;;;6.00;1.50;;;1.20;99.90;;;;;;5069734;28;20058;-42
2021/12/03 02:26:42;;;;;;;5.15;1.45;;;1.20;99.90;;;;;;5069640;28;20052;-43
2021/12/03 02:29:07;;;;;;;;;;;1.10;99.90;;;;;;5070089;28;20044;-42
2021/12/03 02:31:34;;;;;;;2.90;1.20;;;1.10;99.90;;;;;;5069405;28;19923;-42
2021/12/03 02:34:00;;;;;;;2.58;1.52;;;1.10;99.90;;;;;;5079845;28;20044;-42
2021/12/03 02:36:26;;;;;;;4.95;1.55;;;1.10;99.90;;;;;;5078010;28;20474;-43
2021/12/03 02:38:52;;;;;;;3.65;1.40;;;1.10;99.90;;;;;;5071381;28;20036;-44
2021/12/03 02:41:18;;;;;;;6.70;1.38;;;1.10;99.90;;;;;;5074725;28;20037;-44
2021/12/03 02:43:44;;;;;;;4.05;1.52;;;1.10;99.90;;;;;;5070930;28;20052;-43
2021/12/03 02:46:11;;;;;;;2.40;1.40;;;1.00;99.90;;;;;;5068161;28;20043;-43
2021/12/03 02:48:37;;;;;;;2.78;1.27;;;1.10;99.90;;;;;;5072692;28;20040;-43
2021/12/03 02:51:03;;;;;;;5.53;1.63;;;1.00;99.90;;;;;;5065353;28;20119;-43
2021/12/03 02:53:29;;;;;;;5.00;1.45;;;1.10;99.90;;;;;;5058406;28;20055;-43
2021/12/03 02:55:55;;;;;;;5.00;1.65;;;1.00;99.90;;;;;;5070889;28;20146;-43
2021/12/03 02:58:21;;;;;;;3.85;1.27;;;1.00;99.90;;;;;;5073841;28;20044;-43
2021/12/03 03:00:50;;;;;;;5.85;2.00;;;1.00;99.90;;;;;;5070221;28;20070;-43
2021/12/03 03:03:16;;;;;;;8.05;1.90;;;1.00;99.90;;;;;;5076457;28;20043;-43
2021/12/03 03:05:55;;;;;;;5.75;1.42;;;1.00;99.90;;;;;;5054333;28;20044;-43
2021/12/03 03:08:22;;;;;;;3.53;1.30;;;1.00;99.90;;;;;;5053049;28;20124;-44
2021/12/03 03:10:49;;;;;;;;;;;1.00;99.90;;;;;;5053674;28;20058;-43
2021/12/03 03:13:14;;;;;;;4.03;1.45;;;1.00;99.90;;;;;;5070462;28;19932;-43
2021/12/03 03:15:41;;;;;;;5.00;1.20;;;1.00;99.90;;;;;;5068870;28;20036;-42
2021/12/03 03:18:23;;;;;;;8.13;1.77;;;1.00;99.90;;;;;;5066053;28;20059;-44
2021/12/03 03:20:50;;;;;;;10.30;2.90;;;1.00;99.90;;;;;;5058766;28;20478;-44
2021/12/03 03:23:18;;;;;;;11.95;3.15;;;1.00;99.90;;;;;;5068064;28;20044;-44
2021/12/03 03:25:45;;;;;;;12.80;3.70;;;1.00;99.90;;;;;;5071943;28;20083;-43
2021/12/03 03:28:11;;;;;;;;;;;1.10;99.90;;;;;;5055659;28;20044;-44
2021/12/03 03:30:41;;;;;;;8.68;3.90;;;1.00;99.90;;;;;;5081399;28;19923;-43
2021/12/03 03:33:08;;;;;;;9.93;3.80;;;1.10;99.90;;;;;;5090096;28;20032;-43
2021/12/03 03:35:34;;;;;;;10.27;4.45;;;1.10;99.90;;;;;;5076168;28;20039;-43
2021/12/03 03:38:01;;;;;;;8.70;4.77;;;1.10;99.90;;;;;;5096482;28;20048;-43
2021/12/03 03:40:29;;;;;;;10.38;5.75;;;1.10;99.90;;;;;;5091382;28;20043;-43
2021/12/03 03:42:57;;;;;;;15.27;7.10;;;1.20;99.90;;;;;;5095600;28;20109;-43
2021/12/03 03:45:24;;;;;;;9.82;5.90;;;1.20;99.90;;;;;;5081740;28;20351;-43
2021/12/03 03:47:50;;;;;;;15.07;7.28;;;1.20;99.90;;;;;;5074296;28;20122;-43
2021/12/03 03:50:18;;;;;;;15.75;7.63;;;1.20;99.90;;;;;;5088849;28;20036;-43
2021/12/03 03:52:46;;;;;;;18.45;8.82;;;1.20;99.90;;;;;;5094603;28;20400;-44
2021/12/03 03:55:13;;;;;;;;;;;1.30;99.90;;;;;;5055160;28;20048;-45
2021/12/03 03:57:41;;;;;;;19.05;10.43;;;1.30;99.90;;;;;;5077502;28;19927;-43
2021/12/03 04:00:10;;;;;;;22.05;11.75;;;1.30;99.90;;;;;;5090051;28;20127;-43
2021/12/03 04:02:35;;;;;;;20.80;12.20;;;1.30;99.90;;;;;;5092655;28;20405;-43
2021/12/03 04:05:03;;;;;;;26.85;14.07;;;1.30;99.90;;;;;;5079642;28;20047;-43
2021/12/03 04:07:29;;;;;;;24.67;12.65;;;1.30;99.90;;;;;;5090399;28;20102;-44
2021/12/03 04:09:55;;;;;;;26.98;14.88;;;1.40;99.90;;;;;;5097348;28;20075;-43
2021/12/03 04:12:23;;;;;;;25.83;14.60;;;1.40;99.90;;;;;;5075655;28;20043;-44
2021/12/03 04:14:49;;;;;;;25.42;15.88;;;1.40;99.90;;;;;;5054562;28;20382;-44
2021/12/03 04:17:15;;;;;;;29.63;16.48;;;1.40;99.90;;;;;;5042163;28;20044;-43
2021/12/03 04:19:43;;;;;;;26.13;15.70;;;1.40;99.90;;;;;;5085515;28;20504;-44
2021/12/03 04:22:14;;;;;;;29.17;16.48;;;1.40;99.90;;;;;;5086017;28;20102;-43
2021/12/03 04:24:40;;;;;;;29.92;15.98;;;1.40;99.90;;;;;;5085886;28;20058;-47
2021/12/03 04:27:06;;;;;;;30.38;16.63;;;1.40;99.90;;;;;;5099765;28;20127;-46
2021/12/03 04:29:32;;;;;;;28.48;17.48;;;1.40;99.90;;;;;;5095538;28;20477;-43
2021/12/03 04:31:58;;;;;;;31.40;16.80;;;1.40;99.90;;;;;;5057434;28;20047;-44
2021/12/03 04:34:24;;;;;;;30.83;17.08;;;1.40;99.90;;;;;;5094089;28;20119;-43
2021/12/03 04:36:50;;;;;;;25.17;15.82;;;1.60;99.90;;;;;;5070340;28;20370;-43
2021/12/03 04:39:16;;;;;;;26.25;17.08;;;1.40;99.90;;;;;;5084625;28;20046;-43
2021/12/03 04:41:42;;;;;;;27.35;15.90;;;1.40;99.90;;;;;;5082326;28;20654;-44
2021/12/03 04:44:08;;;;;;;28.00;16.33;;;1.40;99.90;;;;;;5093679;28;20131;-44
2021/12/03 04:46:34;;;;;;;23.27;15.15;;;1.40;99.90;;;;;;5060368;28;20126;-45
2021/12/03 04:49:01;;;;;;;27.05;16.40;;;1.40;99.90;;;;;;5093222;28;20401;-44
2021/12/03 04:51:27;;;;;;;25.88;16.52;;;1.40;99.90;;;;;;5075573;28;20113;-44
2021/12/03 04:53:53;;;;;;;25.13;15.70;;;1.40;99.90;;;;;;5058833;28;20454;-44
2021/12/03 04:56:19;;;;;;;26.90;16.00;;;1.40;99.90;;;;;;5094802;28;20044;-44
2021/12/03 04:58:45;;;;;;;23.65;15.45;;;1.40;99.90;;;;;;5059725;28;20043;-44
2021/12/03 05:01:11;;;;;;;25.92;16.23;;;1.40;99.90;;;;;;5041678;28;20449;-43
2021/12/03 05:03:37;;;;;;;23.80;15.43;;;1.30;99.90;;;;;;5092983;28;20106;-43
2021/12/03 05:06:07;;;;;;;22.65;15.20;;;1.30;99.90;;;;;;5038741;28;20040;-43
2021/12/03 05:08:33;;;;;;;23.52;14.73;;;1.30;99.90;;;;;;5064858;28;20056;-43
2021/12/03 05:11:00;;;;;;;26.40;14.77;;;1.30;99.90;;;;;;5078165;28;20118;-43
2021/12/03 05:13:34;;;;;;;22.80;14.63;;;1.30;99.90;;;;;;5093232;28;20040;-43
2021/12/03 05:16:01;;;;;;;24.88;15.23;;;1.30;99.90;;;;;;5081250;28;20052;-45
2021/12/03 05:18:29;;;;;;;22.38;14.68;;;1.30;99.90;;;;;;5095703;28;20047;-45
2021/12/03 05:20:58;;;;;;;22.70;14.88;;;1.20;99.90;;;;;;5087114;28;20442;-44
2021/12/03 05:23:26;;;;;;;23.60;15.13;;;1.30;99.90;;;;;;5067443;28;20451;-45
2021/12/03 05:25:52;;;;;;;22.55;14.45;;;1.20;99.90;;;;;;5092566;28;20080;-44
2021/12/03 05:28:18;;;;;;;22.65;14.40;;;1.20;99.90;;;;;;5096004;28;20441;-43
2021/12/03 05:30:45;;;;;;;21.00;14.70;;;1.20;99.90;;;;;;5100514;28;20111;-43
2021/12/03 05:33:11;;;;;;;24.42;14.15;;;1.20;99.90;;;;;;5074839;28;20040;-44
2021/12/03 05:35:38;;;;;;;22.13;13.95;;;1.20;99.90;;;;;;5093400;28;20446;-44
2021/12/03 05:38:04;;;;;;;20.92;13.63;;;1.20;99.90;;;;;;5066787;28;20036;-44
2021/12/03 05:40:31;;;;;;;21.80;13.57;;;1.30;99.90;;;;;;5094206;28;20056;-43
2021/12/03 05:42:57;;;;;;;21.75;13.57;;;1.20;99.90;;;;;;5065702;28;20417;-43
2021/12/03 05:45:30;;;;;;;19.27;13.15;;;1.30;99.90;;;;;;5095056;28;20047;-43
2021/12/03 05:47:57;;;;;;;22.30;13.57;;;1.30;99.90;;;;;;5073189;28;20086;-43
2021/12/03 05:50:25;;;;;;;17.98;12.90;;;1.30;99.90;;;;;;5066866;28;20107;-43
2021/12/03 05:52:53;;;;;;;20.77;13.57;;;1.30;99.90;;;;;;5078931;28;20043;-44
2021/12/03 05:55:20;;;;;;;;;;;1.30;99.90;;;;;;5066119;28;20119;-45
2021/12/03 05:57:47;;;;;;;21.98;12.38;;;1.30;99.90;;;;;;5088875;28;19920;-45
2021/12/03 06:00:26;;;;;;;20.88;13.23;;;1.30;99.90;;;;;;5050056;28;20527;-44
2021/12/03 06:02:52;;;;;;;20.98;12.18;;;1.30;99.90;;;;;;5091221;28;20044;-43
2021/12/03 06:05:21;;;;;;;19.37;13.47;;;1.30;99.90;;;;;;5063659;28;20051;-43
2021/12/03 06:07:47;;;;;;;19.40;12.25;;;1.30;99.90;;;;;;5058709;28;20043;-43
2021/12/03 06:10:13;;;;;;;20.70;13.18;;;1.30;99.90;;;;;;5076349;28;20051;-42
2021/12/03 06:12:39;;;;;;;20.02;12.93;;;1.20;99.90;;;;;;5097852;28;20040;-42
2021/12/03 06:15:05;;;;;;;16.83;12.70;;;1.20;99.90;;;;;;5060907;28;20078;-43
2021/12/03 06:17:32;;;;;;;20.85;13.70;;;1.20;99.90;;;;;;5088256;28;20043;-44
2021/12/03 06:19:57;;;;;;;18.98;13.30;;;1.20;99.90;;;;;;5090905;28;20094;-43
2021/12/03 06:22:23;;;;;;;21.05;13.52;;;1.20;99.90;;;;;;5087820;28;20748;-43
2021/12/03 06:24:50;;;;;;;20.63;14.00;;;1.20;99.90;;;;;;5088708;28;20081;-42
2021/12/03 06:27:16;;;;;;;20.02;13.68;;;1.30;99.90;;;;;;5075574;28;20070;-45
2021/12/03 06:29:41;;;;;;;24.40;15.68;;;1.20;99.90;;;;;;5073329;28;20381;-45
2021/12/03 06:32:11;;;;;;;21.65;14.25;;;1.30;99.90;;;;;;5097257;28;20036;-43
2021/12/03 06:34:38;;;;;;;26.15;14.55;;;1.30;99.90;;;;;;5088304;28;20389;-43
2021/12/03 06:37:04;;;;;;;25.67;15.10;;;1.30;99.90;;;;;;5085669;28;20048;-43
2021/12/03 06:39:31;;;;;;;28.00;13.70;;;1.40;99.90;;;;;;5074984;28;20448;-46
2021/12/03 06:41:57;;;;;;;24.00;14.05;;;1.40;99.90;;;;;;5084346;28;20089;-44
2021/12/03 06:44:24;;;;;;;23.80;14.73;;;1.40;99.90;;;;;;5094419;28;20036;-44
2021/12/03 06:46:51;;;;;;;22.10;15.32;;;1.50;99.90;;;;;;5080835;28;20698;-43
2021/12/03 06:49:17;;;;;;;25.85;15.68;;;1.50;99.90;;;;;;5062278;28;20032;-44
2021/12/03 06:51:44;;;;;;;21.48;13.68;;;1.50;99.90;;;;;;5062492;28;20048;-44
2021/12/03 06:54:11;;;;;;;23.55;14.82;;;1.60;99.90;;;;;;5076904;28;20036;-44
2021/12/03 06:56:47;;;;;;;22.38;14.45;;;1.70;99.90;;;;;;5072483;28;20047;-43
2021/12/03 06:59:17;;;;;;;22.90;14.55;;;1.70;99.90;;;;;;5085466;28;20028;-43
2021/12/03 07:01:43;;;;;;;26.42;14.50;;;1.70;99.90;;;;;;5084509;28;20034;-42
2021/12/03 07:04:10;;;;;;;20.15;13.38;;;1.80;99.90;;;;;;5090202;28;20039;-44
2021/12/03 07:06:36;;;;;;;25.10;14.40;;;1.80;99.90;;;;;;5075575;28;20047;-43
2021/12/03 07:09:03;;;;;;;22.20;13.10;;;1.80;99.90;;;;;;5051558;28;20108;-43
2021/12/03 07:11:29;;;;;;;20.30;13.48;;;1.80;99.90;;;;;;5089631;28;20071;-45
2021/12/03 07:13:55;;;;;;;25.13;13.65;;;1.80;99.90;;;;;;5067266;28;20490;-44
2021/12/03 07:16:21;;;;;;;23.92;13.82;;;1.80;99.90;;;;;;5061119;28;20119;-43
2021/12/03 07:18:47;;;;;;;19.92;11.93;;;1.90;99.90;;;;;;5060383;28;20902;-44
2021/12/03 07:21:13;;;;;;;23.25;12.27;;;1.90;99.90;;;;;;5087091;28;20097;-43
2021/12/03 07:23:39;;;;;;;20.10;12.02;;;1.80;99.90;;;;;;5071540;28;20064;-46
2021/12/03 07:26:05;;;;;;;16.67;11.68;;;1.90;99.90;;;;;;5064984;28;20047;-43
2021/12/03 07:28:31;;;;;;;17.48;11.25;;;1.80;99.90;;;;;;5071477;28;20376;-44
2021/12/03 07:30:57;;;;;;;22.83;12.27;;;1.80;99.90;;;;;;5069872;28;20506;-43
2021/12/03 07:33:24;;;;;;;17.65;10.45;;;1.90;99.90;;;;;;5084613;28;20119;-43
2021/12/03 07:35:50;;;;;;;16.63;10.95;;;1.90;99.90;;;;;;5078783;28;20473;-43
2021/12/03 07:38:19;;;;;;;15.52;9.98;;;1.90;99.90;;;;;;5070077;28;20043;-44
2021/12/03 07:40:46;;;;;;;16.50;9.80;;;1.90;99.90;;;;;;5088999;28;20047;-44
2021/12/03 07:43:12;;;;;;;16.08;9.75;;;1.90;99.90;;;;;;5077629;28;20047;-44
2021/12/03 07:45:38;;;;;;;17.23;9.98;;;1.90;99.90;;;;;;5068447;28;20116;-44
2021/12/03 07:48:05;;;;;;;17.05;9.65;;;1.90;99.90;;;;;;5084859;28;20048;-44
2021/12/03 07:50:35;;;;;;;15.63;9.77;;;1.90;99.90;;;;;;5072010;28;20384;-44
2021/12/03 07:53:02;;;;;;;16.75;9.13;;;1.90;99.90;;;;;;5064693;28;20044;-44
2021/12/03 07:55:28;;;;;;;13.73;8.88;;;2.00;99.90;;;;;;5056216;28;20097;-44
2021/12/03 07:57:55;;;;;;;12.68;7.85;;;2.00;99.90;;;;;;5085839;28;20040;-44
2021/12/03 08:00:21;;;;;;;12.40;7.38;;;2.00;99.90;;;;;;5074320;28;20050;-44
2021/12/03 08:02:48;;;;;;;11.35;6.90;;;2.00;99.90;;;;;;5056356;28;20499;-44
2021/12/03 08:05:14;;;;;;;15.82;7.00;;;2.00;99.90;;;;;;5094099;28;20043;-44
2021/12/03 08:07:45;;;;;;;13.98;6.63;;;2.10;99.90;;;;;;5055218;28;20036;-45
2021/12/03 08:10:12;;;;;;;13.75;7.25;;;2.10;99.90;;;;;;5084388;28;20058;-44
2021/12/03 08:12:43;;;;;;;10.32;7.00;;;2.10;99.90;;;;;;5063942;28;20079;-43
2021/12/03 08:15:10;;;;;;;11.52;7.18;;;2.10;99.90;;;;;;5088784;28;20040;-44
2021/12/03 08:17:36;;;;;;;13.10;6.45;;;2.10;99.90;;;;;;5069607;28;20055;-44
2021/12/03 08:20:03;;;;;;;11.20;6.45;;;2.10;99.90;;;;;;5082219;28;20040;-45
2021/12/03 08:22:29;;;;;;;11.95;5.88;;;2.10;99.90;;;;;;5043512;28;20067;-46
2021/12/03 08:24:55;;;;;;;12.55;6.05;;;2.10;99.90;;;;;;5066265;28;20064;-44
2021/12/03 08:27:21;;;;;;;14.98;7.32;;;2.20;99.90;;;;;;5066626;28;20056;-47
2021/12/03 08:29:47;;;;;;;14.52;7.85;;;2.20;99.90;;;;;;5061659;28;20045;-43
2021/12/03 08:32:13;;;;;;;16.67;6.53;;;2.20;99.90;;;;;;5086187;28;20040;-46
2021/12/03 08:34:39;;;;;;;12.23;6.13;;;2.20;99.90;;;;;;5040731;28;20110;-43
2021/12/03 08:37:07;;;;;;;13.45;5.72;;;2.20;99.90;;;;;;5068150;28;20071;-43
2021/12/03 08:39:33;;;;;;;11.55;6.90;;;2.30;99.90;;;;;;5062565;28;20056;-48
2021/12/03 08:41:59;;;;;;;11.57;5.22;;;2.30;99.90;;;;;;5069688;28;20102;-45
2021/12/03 08:44:25;;;;;;;15.75;5.60;;;2.30;99.90;;;;;;5054385;28;20052;-46
2021/12/03 08:46:58;;;;;;;15.77;6.05;;;2.40;99.90;;;;;;5059134;28;20060;-45
2021/12/03 08:54:51;;;;;;;12.10;5.38;;;2.50;99.90;;;;;;5065494;28;20044;-44
2021/12/03 08:57:22;;;;;;;11.77;6.03;;;2.60;99.90;;;;;;5064199;28;20123;-45
2021/12/03 08:59:51;;;;;;;14.90;5.93;;;2.60;99.90;;;;;;5042568;28;20044;-44
2021/12/03 09:02:17;;;;;;;9.85;5.70;;;2.60;99.90;;;;;;5053372;28;20037;-44
2021/12/03 09:04:43;;;;;;;13.50;5.93;;;2.70;99.90;;;;;;5044741;28;20073;-45
2021/12/03 09:07:09;;;;;;;11.63;6.07;;;2.60;99.90;;;;;;5059185;28;20119;-45
2021/12/03 09:09:35;;;;;;;11.23;6.22;;;2.70;99.90;;;;;;5066097;28;20040;-45
2021/12/03 09:12:02;;;;;;;10.32;6.25;;;2.70;99.90;;;;;;5066462;28;20040;-45
2021/12/03 09:17:01;;;;;;;17.27;6.93;;;2.70;99.90;;;;;;5064865;28;20126;-45
2021/12/03 09:19:40;;;;;;;14.52;7.10;;;2.70;99.90;;;;;;5066184;28;20048;-45
2021/12/03 09:22:10;;;;;;;13.35;7.63;;;2.70;99.90;;;;;;5064185;28;20115;-44
2021/12/03 09:24:38;;;;;;;14.63;9.05;;;2.80;99.90;;;;;;5052698;28;20424;-44
2021/12/03 09:27:04;;;;;;;16.05;8.98;;;2.80;99.90;;;;;;5070130;28;20125;-44
2021/12/03 09:29:35;;;;;;;15.02;7.78;;;2.80;99.90;;;;;;5063561;28;20621;-44
2021/12/03 09:32:01;;;;;;;18.73;8.65;;;2.80;99.90;;;;;;5052418;28;20079;-44
2021/12/03 09:34:30;;;;;;;21.00;9.18;;;2.90;99.90;;;;;;5057517;28;20036;-45
2021/12/03 09:36:57;;;;;;;17.73;9.48;;;2.80;99.90;;;;;;5065118;28;20514;-45
2021/12/03 09:39:24;;;;;;;18.02;9.57;;;2.90;99.90;;;;;;5070563;28;20042;-44
2021/12/03 09:41:52;;;;;;;21.33;10.38;;;2.90;99.90;;;;;;5069381;28;20471;-46
2021/12/03 09:44:19;;;;;;;19.30;10.15;;;2.90;99.90;;;;;;5070952;28;20037;-46
2021/12/03 09:46:46;;;;;;;18.55;11.13;;;2.90;99.90;;;;;;5064640;28;20414;-44
2021/12/03 09:54:36;;;;;;;21.75;11.48;;;3.00;99.90;;;;;;5070551;28;20037;-44
2021/12/03 09:57:30;;;;;;;20.58;11.90;;;3.10;99.90;;;;;;5066403;28;20088;-44
2021/12/03 10:08:41;;;;;;;26.92;11.90;;;3.20;99.90;;;;;;5080744;28;20506;-45
2021/12/03 10:13:41;;;;;;;27.73;11.80;;;3.30;99.90;;;;;;5061338;28;20040;-45
2021/12/03 10:18:57;;;;;;;19.55;12.02;;;3.30;99.90;;;;;;5073927;28;20210;-45
2021/12/03 11:16:30;;;;;;;14.63;6.65;;;3.60;99.90;;;;;;5055147;28;20394;-44
2021/12/03 11:56:20;;;;;;;11.32;5.05;;;3.50;99.90;;;;;;5066000;28;20098;-44
2021/12/03 12:23:43;;;;;;;16.98;5.68;;;3.50;99.90;;;;;;5062457;28;20036;-45
2021/12/03 13:00:34;;;;;;;17.98;5.50;;;3.30;99.90;;;;;;5098543;28;20040;-46
2021/12/03 13:21:55;;;;;;;10.68;6.45;;;3.30;99.90;;;;;;5073556;28;20094;-46
2021/12/03 14:55:32;;;;;;;10.25;4.70;;;3.80;99.90;;;;;;5066796;28;20049;-48
2021/12/03 14:58:19;;;;;;;13.07;4.95;;;3.80;99.90;;;;;;5069203;28;20127;-49
2021/12/03 15:00:58;;;;;;;11.20;4.97;;;3.80;99.90;;;;;;5070981;28;20124;-45
2021/12/03 15:08:33;;;;;;;9.70;4.88;;;3.80;99.90;;;;;;5076355;28;20077;-46
2021/12/03 15:21:49;;;;;;;10.02;6.00;;;3.80;99.90;;;;;;5057989;28;20077;-45
2021/12/03 15:26:59;;;;;;;10.00;5.78;;;3.80;99.90;;;;;;5091317;28;20114;-47
2021/12/03 15:57:14;;;;;;;11.35;8.98;;;3.80;99.90;;;;;;5015667;28;20523;-47
2021/12/03 16:53:32;;;;;;;19.55;15.35;;;4.00;99.90;;;;;;5064974;28;20041;-45
2021/12/03 16:58:35;;;;;;;18.33;12.50;;;4.00;99.90;;;;;;5066876;28;20502;-46
2021/12/03 17:01:13;;;;;;;17.50;12.25;;;4.00;99.90;;;;;;5065842;28;20044;-45
2021/12/03 17:51:04;;;;;;;21.23;13.70;;;4.10;99.90;;;;;;5066363;28;20378;-46
2021/12/03 17:56:20;;;;;;;20.08;12.20;;;4.10;99.90;;;;;;5039864;28;20498;-47
2021/12/03 17:58:53;;;;;;;18.80;13.10;;;4.10;99.90;;;;;;5079308;28;20052;-45
2021/12/03 18:01:25;;;;;;;19.15;13.55;;;4.10;99.90;;;;;;5070521;28;20032;-47
2021/12/03 18:54:55;;;;;;;22.05;15.10;;;4.20;99.90;;;;;;5091927;28;20055;-47
2021/12/03 18:57:26;;;;;;;22.25;14.10;;;4.30;99.90;;;;;;5110279;28;20089;-46
2021/12/03 19:00:05;;;;;;;22.88;14.70;;;4.20;99.90;;;;;;5088830;28;20039;-45
2021/12/03 19:02:33;;;;;;;22.20;14.93;;;4.20;99.90;;;;;;5091377;28;20043;-45
2021/12/03 19:05:09;;;;;;;;;;;4.30;99.90;;;;;;5092886;28;20040;-45
2021/12/03 19:08:32;;;;;;;24.20;15.20;;;4.30;99.90;;;;;;5073102;28;19973;-46
2021/12/03 19:10:25;;;;;;;22.95;15.32;;;4.30;99.90;;;;;;5068491;28;20048;-46
2021/12/03 19:13:06;;;;;;;22.38;14.80;;;4.30;99.90;;;;;;5075530;28;20035;-45
2021/12/03 19:15:33;;;;;;;23.30;15.18;;;4.30;99.90;;;;;;5104097;28;20048;-45
2021/12/03 19:18:02;;;;;;;27.23;16.55;;;4.30;99.90;;;;;;5052688;28;20055;-47
2021/12/03 19:20:32;;;;;;;26.00;15.45;;;4.30;99.90;;;;;;5069836;28;20115;-46
2021/12/03 19:22:59;;;;;;;23.00;15.02;;;4.30;99.90;;;;;;5063304;28;20063;-46
2021/12/03 19:25:25;;;;;;;26.40;16.52;;;4.30;99.90;;;;;;5104791;28;20084;-46
2021/12/03 19:27:51;;;;;;;25.33;16.35;;;4.30;99.90;;;;;;5077724;28;20487;-45
2021/12/03 19:30:17;;;;;;;26.08;16.50;;;4.30;99.90;;;;;;5079204;28;20044;-48
2021/12/03 19:32:43;;;;;;;28.27;17.38;;;4.30;99.90;;;;;;5056313;28;20048;-46
2021/12/03 19:35:09;;;;;;;30.52;18.77;;;4.30;99.90;;;;;;5086423;28;20039;-46
2021/12/03 19:37:37;;;;;;;30.83;19.35;;;4.30;99.90;;;;;;5063061;28;20527;-46
2021/12/03 19:40:08;;;;;;;;;;;4.30;99.90;;;;;;5110837;28;20050;-46
2021/12/03 19:42:39;;;;;;;31.63;19.17;;;4.30;99.90;;;;;;5072491;28;19931;-45
2021/12/03 19:45:08;;;;;;;30.92;18.52;;;4.30;99.90;;;;;;5104551;28;20463;-45
2021/12/03 19:50:32;;;;;;;30.38;19.30;;;4.30;99.90;;;;;;5090278;28;20040;-47
2021/12/03 19:53:07;;;;;;;32.38;19.33;;;4.40;99.90;;;;;;5103472;28;20043;-46
2021/12/03 19:55:37;;;;;;;30.75;18.83;;;4.40;99.90;;;;;;5085078;28;20110;-45
2021/12/03 19:58:04;;;;;;;35.85;21.52;;;4.30;99.90;;;;;;5077281;28;20097;-46
2021/12/03 20:00:30;;;;;;;31.63;19.85;;;4.40;99.90;;;;;;5091823;28;20039;-49
2021/12/03 20:02:56;;;;;;;33.50;20.65;;;4.40;99.90;;;;;;5068755;28;20040;-46
2021/12/03 20:05:22;;;;;;;41.10;23.02;;;4.40;99.90;;;;;;5071400;28;20051;-46
2021/12/03 20:07:51;;;;;;;43.90;25.23;;;4.40;99.90;;;;;;5054842;28;20454;-46
2021/12/03 20:10:17;;;;;;;37.25;22.10;;;4.40;99.90;;;;;;5098272;28;20116;-46
2021/12/03 20:12:46;;;;;;;40.03;23.10;;;4.40;99.90;;;;;;5095238;28;20075;-47
2021/12/03 20:15:19;;;;;;;34.60;20.92;;;4.40;99.90;;;;;;5089918;28;20436;-46
2021/12/03 20:17:53;;;;;;;41.03;24.25;;;4.40;99.90;;;;;;5075391;28;20125;-47
2021/12/03 20:20:18;;;;;;;37.53;21.33;;;4.40;99.90;;;;;;5110145;28;20050;-46
2021/12/03 20:27:54;;;;;;;37.03;22.08;;;4.40;99.90;;;;;;5072531;28;20480;-45
2021/12/03 20:33:04;;;;;;;37.42;22.40;;;4.40;99.90;;;;;;5097822;28;20092;-46
2021/12/03 20:38:12;;;;;;;39.40;22.52;;;4.50;99.90;;;;;;5072006;28;20096;-47
2021/12/03 20:40:37;;;;;;;41.28;22.50;;;4.50;99.90;;;;;;5109217;28;20051;-46
2021/12/03 20:48:41;;;;;;;40.65;24.30;;;4.50;99.90;;;;;;5074229;28;20052;-45
2021/12/03 21:07:54;;;;;;;41.72;23.40;;;4.50;99.90;;;;;;4996779;28;20038;-46
2021/12/03 21:10:22;;;;;;;43.85;23.70;;;4.50;99.90;;;;;;5085494;28;20043;-46
2021/12/03 21:12:50;;;;;;;44.58;24.35;;;4.50;99.90;;;;;;5075525;28;20092;-45
2021/12/03 21:20:49;;;;;;;42.78;24.27;;;4.50;99.90;;;;;;5073765;28;20170;-48
2021/12/03 21:23:18;;;;;;;44.15;24.73;;;4.50;99.90;;;;;;5079117;28;20493;-46
2021/12/03 21:25:49;;;;;;;45.55;25.10;;;4.50;99.90;;;;;;5075658;28;20084;-47
2021/12/03 21:30:59;;;;;;;46.83;24.05;;;4.50;99.90;;;;;;5073818;28;20261;-46
2021/12/03 21:41:27;;;;;;;46.42;24.63;;;4.50;99.90;;;;;;5072332;28;20075;-46
2021/12/03 21:44:03;;;;;;;45.80;23.98;;;4.50;99.90;;;;;;5072595;28;20109;-46
2021/12/03 21:46:35;;;;;;;38.72;21.92;;;4.50;99.90;;;;;;5073468;28;20363;-46
2021/12/03 21:49:04;;;;;;;41.25;23.58;;;4.50;99.90;;;;;;5072046;28;20036;-46
2021/12/03 21:51:31;;;;;;;43.90;23.52;;;4.50;99.90;;;;;;5070549;28;20044;-46
2021/12/03 21:53:58;;;;;;;45.83;25.63;;;4.50;99.90;;;;;;5073078;28;20343;-48